Raúl Soto

Chefscout - Real Sociedad
1 Aug 2027
Sonntag
Verarbeitung

Persönlichkeit

Anpassungsfähigkeit (4) Ehrgeiz (9) Kontroverse (18) Loyalität (13) Druck (8) Professionalität (8) Fairness (2) Temperament (3)

Profil

Trainerstil Demokratisch
Lizenz Kontinentale C
Entschlossenheit 13
Menschenführung 8
Motivation 15
Disziplin 12
Arbeitszufriedenheit
70%
Ermüdung
0%
Rolle Chefscout
Gehalt 80.3K p/W
Vertrag 14.03.2030

Leistung

Verhalten Gut
Trainingseffektivität
31%
Spielerentwicklung
70%
Verletzungsprävention
35%
Taktische Umsetzung
35%

Letzte Ereignisse

Empfahl ein Transferziel jetzt
Empfahl ein Transferziel jetzt
Empfahl ein Transferziel jetzt
Empfahl ein Transferziel jetzt
Spieler begutachtet jetzt
Spieler begutachtet jetzt
Spieler begutachtet jetzt
Spieler begutachtet jetzt

Aktuell beobachtet

82
Spieler Verein Status Fähigkeit Vertrauen Beobachtet Zuletzt beobachtet Letzte Stimme
Hugo Sotelo Celta Aktiv 141 / 150 40% 2 31.07.2027 -
Jonathan Rowe Bologna Aktiv 147 / 138 40% 3 31.07.2027 -
Hugo Rojas Instituto Aktiv 119 / 99 40% 1 31.07.2027 -
Kaick FC Dallas Aktiv 100 / 118 40% 1 31.07.2027 -
Gustavo Albarracín Alavés Aktiv 107 / 118 40% 3 29.07.2027 -
Juan Diego Perdomo Depor Aktiv 84 / 86 40% 1 29.07.2027 -
Ollie Scarles West Ham United Aktiv 141 / 143 40% 9 28.07.2027 -
Eliás Montiel Pachuca Aktiv 132 / 133 40% 2 28.07.2027 -
Alex Tóth Bournemouth Aktiv 129 / 139 40% 1 28.07.2027 -
Paxten Aaronson Colorado Rapids Aktiv 129 / 149 40% 1 28.07.2027 -
Isaac Price West Bromwich Albion Aktiv 133 / 139 40% 2 27.07.2027 -
Alex Luna Instituto Aktiv 143 / 122 40% 1 27.07.2027 -
Sidny Lopes Cabral Trabzonspor Aktiv 124 / 132 40% 2 26.07.2027 -
Marquinhos Rubin Bericht bereit 128 / 128 68% 1 26.07.2027 Befürworten
Wagner Pina Trabzonspor Aktiv 147 / 136 40% 1 26.07.2027 -
Tim Iroegbunam Everton Aktiv 144 / 145 40% 1 25.07.2027 -
Hervé Berger Tours Aktiv 104 / 110 40% 2 24.07.2027 -
Arjan Malić Sturm Graz Aktiv 129 / 133 40% 2 22.07.2027 -
Denys Smetana Metalurh Zaporizhzhia Aktiv 98 / 102 40% 1 22.07.2027 -
Jayden Spier Willem II Aktiv 115 / 122 40% 2 21.07.2027 -
Duvan Giraldo Cortulua Aktiv 117 / 151 40% 1 21.07.2027 -
Vitor Reis Manchester City Aktiv 129 / 147 40% 1 20.07.2027 -
Vasyl Bundash Metalurh Zaporizhzhia Aktiv 110 / 102 40% 1 20.07.2027 -
Johann Lepenant FC Nantes Aktiv 145 / 134 40% 1 20.07.2027 -
Augusto Bando Ascoli Aktiv 108 / 119 40% 1 18.07.2027 -
Chris Rigg Bournemouth Aktiv 142 / 149 40% 3 15.07.2027 -
Amir Mohammad Razzaghinia Esteghlal Aktiv 119 / 132 40% 1 14.07.2027 -
Maxim Radchenko Rostov Aktiv 75 / 85 40% 1 13.07.2027 -
Marlon Gomes Shakhtar Aktiv 137 / 148 40% 1 13.07.2027 -
Kian Fitz-Jim Torino Aktiv 135 / 139 40% 1 12.07.2027 -
Festy Ebosele Basaksehir Aktiv 142 / 144 40% 1 12.07.2027 -
Olívio Tomé Benfica Aktiv 104 / 125 40% 2 10.07.2027 -
Fidel Ambríz Monterrey Aktiv 147 / 128 40% 1 10.07.2027 -
Luca Koleosho Paris FC Aktiv 133 / 132 40% 1 09.07.2027 -
Andre Brooks Sheffield United Aktiv 141 / 138 40% 1 08.07.2027 -
Carlos Forbs Club Brugge Aktiv 139 / 129 40% 1 07.07.2027 -
Giovanni Reyna RC Strasbourg Aktiv 142 / 130 40% 1 07.07.2027 -
Raúl Moro Osasuna Aktiv 140 / 137 40% 1 06.07.2027 -
Sascha Britschgi Udinese Aktiv 113 / 125 40% 1 06.07.2027 -
Alejo Fernández Temperley Aktiv 96 / 90 40% 1 05.07.2027 -
Ignacio Pérez Universidad Catolica Aktiv 99 / 100 40% 1 05.07.2027 -
Agustín De la Cuesta Racing Aktiv 118 / 132 40% 1 30.06.2027 -
Tom Fellows Southampton Aktiv 140 / 132 40% 1 30.06.2027 -
Abdul Fatawu Leicester City Aktiv 135 / 141 40% 1 30.06.2027 -
Yeremay Deportivo La Coruña Aktiv 140 / 148 40% 1 29.06.2027 -
Izan Merino Málaga Aktiv 130 / 123 40% 2 27.06.2027 -
Jaydee Canvot Crystal Palace Aktiv 136 / 149 40% 1 27.06.2027 -
Christantus Uche Getafe Aktiv 139 / 133 40% 1 26.06.2027 -
Caleb Yirenkyi Coventry City Aktiv 147 / 141 40% 1 25.06.2027 -
Mattia Mannini Juve Stabia Aktiv 106 / 125 40% 1 25.06.2027 -
Martim Fernandes Porto Aktiv 133 / 147 40% 1 23.06.2027 -
Jay Stansfield Birmingham Aktiv 133 / 123 40% 1 23.06.2027 -
Hugo Álvarez Celta Aktiv 150 / 145 40% 1 23.06.2027 -
Honest Ahanor Udinese Aktiv 128 / 127 40% 3 21.06.2027 -
Toni Tamarit Alverca Aktiv 110 / 120 40% 1 21.06.2027 -
Ernest Nuamah Olympique Lyonnais Aktiv 142 / 144 40% 2 20.06.2027 -
Wilfried Gnonto Leeds United Aktiv 135 / 145 40% 1 20.06.2027 -
Louis Leroux FC Nantes Aktiv 128 / 133 40% 1 20.06.2027 -
Renato Guimarães Veracruz Aktiv 109 / 118 40% 1 20.06.2027 -
Ronan Kpakio West Bromwich Albion Aktiv 122 / 121 40% 2 19.06.2027 -
Maeson King Portsmouth Aktiv 108 / 113 40% 1 19.06.2027 -
Tomáš Rigo Stoke City Aktiv 140 / 136 40% 2 17.06.2027 -
Rabby Nzingoula West Bromwich Albion Aktiv 115 / 118 40% 1 17.06.2027 -
Habib Diarra Sunderland Aktiv 141 / 142 40% 1 16.06.2027 -
Alpha Touré FC Metz Aktiv 122 / 119 40% 2 14.06.2027 -
Luiz Henrique Liverpool Aktiv 142 / 143 66% 1 14.06.2027 Befürworten
Dries Vanaken Mouscron Aktiv 115 / 121 40% 1 14.06.2027 -
Lucas Jetten Cambuur Aktiv 114 / 120 40% 1 12.06.2027 -
Juan José Cataño Envigado Aktiv 96 / 82 40% 1 06.06.2027 -
Tiziano Cabrera Central Norte Aktiv 85 / 91 40% 1 05.06.2027 -
Lucas Velásquez Huachipato Aktiv 79 / 111 40% 2 04.06.2027 -
Daniel Vernattus Metalist Aktiv 93 / 105 40% 1 03.06.2027 -
Hugo Duro Valencia Aktiv 146 / 142 40% 1 27.01.2027 -
Florián Monzón Atlas Aktiv 128 / 129 40% 1 27.01.2027 -
Francis Amuzu Eintracht Frankfurt Aktiv 129 / 129 67% 1 25.01.2027 Befürworten
Joseph Paintsil Feyenoord Aktiv 130 / 130 67% 1 18.01.2027 Befürworten
Adriano Bertaccini Anderlecht Aktiv 134 / 123 40% 1 18.01.2027 -
Hugo Gallardo Manchester United Aktiv 156 / 157 69% 1 11.01.2027 Befürworten
Lionel Messi Chelsea Aktiv 171 / 171 67% 1 07.01.2027 Befürworten
Hugo Cuypers Monterrey Aktiv 118 / 131 40% 1 01.01.2027 -
Luca Orellano Monterrey Aktiv 138 / 119 40% 1 02.08.2026 -
Diego Rossi Monterrey Aktiv 141 / 136 40% 1 02.08.2026 -